createdAt,value
2023-03-13T00:00:19.902Z,10.58
2023-03-13T00:05:21.558Z,10.61
2023-03-13T00:10:23.184Z,10.65
2023-03-13T00:15:24.710Z,10.69
2023-03-13T00:20:26.654Z,10.71
2023-03-13T00:25:30.432Z,10.71
2023-03-13T00:30:32.048Z,10.76
2023-03-13T00:35:33.731Z,10.83
2023-03-13T00:40:35.277Z,10.90
2023-03-13T00:45:36.780Z,10.98
2023-03-13T00:50:39.280Z,11.04
2023-03-13T00:55:51.566Z,11.13
2023-03-13T01:00:54.057Z,11.20
2023-03-13T01:06:00.659Z,11.17
2023-03-13T01:11:06.579Z,11.18
2023-03-13T01:16:14.764Z,11.21
2023-03-13T01:21:19.174Z,11.17
2023-03-13T01:26:21.799Z,11.22
2023-03-13T01:31:26.920Z,11.26
2023-03-13T01:36:29.661Z,11.30
2023-03-13T01:41:31.747Z,11.40
2023-03-13T01:46:33.510Z,11.45
2023-03-13T01:51:47.470Z,11.42
2023-03-13T01:57:00.714Z,11.33
2023-03-13T02:02:04.605Z,11.16
2023-03-13T02:07:12.547Z,11.09
2023-03-13T02:12:40.144Z,10.95
2023-03-13T02:17:43.043Z,10.81
2023-03-13T02:22:53.728Z,10.77
2023-03-13T02:28:00.173Z,10.83
2023-03-13T02:33:03.524Z,10.86
2023-03-13T02:38:10.272Z,10.82
2023-03-13T02:43:21.221Z,10.79
2023-03-13T02:48:31.639Z,10.88
2023-03-13T02:53:33.555Z,10.93
2023-03-13T02:58:49.322Z,10.98
2023-03-13T03:03:52.347Z,11.02
2023-03-13T03:08:53.941Z,11.04
2023-03-13T03:13:56.617Z,10.98
2023-03-13T03:18:59.286Z,10.98
2023-03-13T03:24:01.401Z,10.99
2023-03-13T03:29:03.489Z,11.00
2023-03-13T03:34:07.895Z,11.02
2023-03-13T03:39:09.861Z,11.07
2023-03-13T03:44:11.466Z,11.20
2023-03-13T03:49:25.537Z,11.32
2023-03-13T03:54:27.464Z,11.39
2023-03-13T03:59:29.767Z,11.42
2023-03-13T04:04:33.421Z,11.39
2023-03-13T04:09:46.878Z,11.38
2023-03-13T04:14:56.441Z,11.40
2023-03-13T04:19:58.109Z,11.45
2023-03-13T04:25:00.930Z,11.51
2023-03-13T04:30:05.657Z,11.49
2023-03-13T04:35:21.223Z,11.53
2023-03-13T04:41:01.038Z,11.61
2023-03-13T04:46:15.557Z,11.61
2023-03-13T04:51:35.729Z,11.61
2023-03-13T04:57:00.258Z,11.66
2023-03-13T05:02:14.160Z,11.68
2023-03-13T05:07:41.858Z,11.71
2023-03-13T05:13:02.676Z,11.23
2023-03-13T05:18:24.786Z,10.97
2023-03-13T05:23:56.100Z,11.06
2023-03-13T05:29:00.498Z,11.29
2023-03-13T05:34:13.109Z,11.45
2023-03-13T05:39:42.722Z,11.57
2023-03-13T05:44:54.743Z,11.62
2023-03-13T05:50:28.429Z,11.66
2023-03-13T05:55:55.968Z,11.74
2023-03-13T06:01:24.229Z,11.77
2023-03-13T06:06:35.477Z,11.78
2023-03-13T06:11:40.317Z,11.82
2023-03-13T06:16:42.092Z,11.88
2023-03-13T06:21:50.360Z,11.94
2023-03-13T06:26:52.145Z,11.95
2023-03-13T06:31:53.813Z,11.95
2023-03-13T06:36:56.465Z,11.92
2023-03-13T06:41:58.515Z,11.91
2023-03-13T06:47:00.061Z,11.93
2023-03-13T06:52:01.761Z,11.98
2023-03-13T06:57:03.441Z,12.04
2023-03-13T07:02:05.127Z,12.12
2023-03-13T07:07:06.838Z,12.18
2023-03-13T07:12:08.731Z,12.29
2023-03-13T07:17:10.354Z,12.40
2023-03-13T07:22:11.888Z,12.55
2023-03-13T07:27:32.987Z,12.71
2023-03-13T07:32:34.669Z,12.82
2023-03-13T07:37:36.226Z,12.95
2023-03-13T07:42:40.550Z,13.08
2023-03-13T07:47:45.072Z,13.28
2023-03-13T07:52:46.665Z,13.42
2023-03-13T07:57:48.199Z,13.65
2023-03-13T08:02:49.722Z,13.98
2023-03-13T08:07:51.279Z,14.28
2023-03-13T08:12:53.032Z,14.37
2023-03-13T08:17:57.810Z,14.47
2023-03-13T08:22:59.342Z,14.70
2023-03-13T08:28:03.151Z,14.80
2023-03-13T08:33:07.432Z,14.60
2023-03-13T08:38:15.100Z,14.34
2023-03-13T08:43:16.605Z,14.23
2023-03-13T08:48:18.262Z,14.26
2023-03-13T08:53:19.772Z,14.42
2023-03-13T08:58:21.509Z,14.70
2023-03-13T09:03:23.171Z,14.80
2023-03-13T09:08:25.441Z,14.79
2023-03-13T09:13:28.994Z,15.12
2023-03-13T09:18:31.172Z,15.38
2023-03-13T09:23:32.978Z,15.86
2023-03-13T09:28:39.485Z,16.54
2023-03-13T09:33:42.659Z,16.88
2023-03-13T09:38:44.651Z,17.02
2023-03-13T09:44:09.870Z,17.40
2023-03-13T09:49:34.950Z,17.70
2023-03-13T09:54:42.047Z,18.10
2023-03-13T09:59:57.392Z,18.28
2023-03-13T10:05:22.327Z,18.28
2023-03-13T10:10:39.137Z,18.00
2023-03-13T10:15:56.960Z,17.99
2023-03-13T10:21:01.758Z,18.14
2023-03-13T10:26:03.374Z,18.39
2023-03-13T10:31:23.838Z,18.94
2023-03-13T10:36:25.461Z,19.28
2023-03-13T10:41:31.145Z,18.86
2023-03-13T10:46:36.089Z,18.26
2023-03-13T10:51:48.939Z,18.14
2023-03-13T10:56:51.904Z,17.73
2023-03-13T11:02:01.505Z,17.48
2023-03-13T11:07:28.745Z,17.52
2023-03-13T11:12:34.793Z,17.41
2023-03-13T11:17:39.919Z,17.51
2023-03-13T11:22:53.550Z,17.74
2023-03-13T11:28:15.350Z,17.87
2023-03-13T11:33:28.242Z,18.02
2023-03-13T11:38:39.993Z,18.37
2023-03-13T11:44:07.103Z,18.70
2023-03-13T11:49:29.341Z,18.98
2023-03-13T11:54:59.657Z,19.25
2023-03-13T12:00:31.200Z,19.40
2023-03-13T12:05:46.164Z,19.67
2023-03-13T12:11:00.405Z,20.09
2023-03-13T12:16:10.202Z,20.46
2023-03-13T12:21:23.346Z,20.27
2023-03-13T12:27:15.479Z,20.41
2023-03-13T12:32:28.867Z,20.57
2023-03-13T12:37:47.596Z,20.84
2023-03-13T12:43:00.653Z,20.53
2023-03-13T12:48:14.238Z,20.44
2023-03-13T12:53:42.129Z,20.59
2023-03-13T12:58:51.880Z,20.85
2023-03-13T13:04:00.881Z,20.96
2023-03-13T13:09:27.020Z,21.09
2023-03-13T13:14:28.505Z,21.10
2023-03-13T13:19:42.202Z,21.17
2023-03-13T13:24:52.134Z,21.04
2023-03-13T13:29:58.597Z,20.94
2023-03-13T13:35:03.372Z,20.77
2023-03-13T13:40:24.358Z,20.58
2023-03-13T13:45:35.192Z,20.40
2023-03-13T13:50:36.844Z,20.26
2023-03-13T13:55:43.822Z,20.13
2023-03-13T14:01:03.696Z,20.08
2023-03-13T14:06:30.871Z,20.01
2023-03-13T14:11:39.436Z,19.87
2023-03-13T14:16:46.302Z,19.73
2023-03-13T14:21:47.937Z,19.80
2023-03-13T14:26:49.491Z,19.90
2023-03-13T14:31:56.910Z,19.86
2023-03-13T14:37:16.777Z,19.81
2023-03-13T14:42:19.367Z,19.68
2023-03-13T14:47:32.178Z,19.61
2023-03-13T14:52:34.232Z,19.62
2023-03-13T14:57:36.122Z,19.61
2023-03-13T15:02:38.767Z,19.57
2023-03-13T15:07:47.384Z,19.47
2023-03-13T15:12:49.602Z,19.41
2023-03-13T15:17:51.126Z,19.39
2023-03-13T15:22:52.634Z,19.38
2023-03-13T15:27:54.151Z,19.40
2023-03-13T15:32:55.718Z,19.47
2023-03-13T15:37:59.474Z,19.45
2023-03-13T15:43:01.045Z,19.41
2023-03-13T15:48:02.863Z,19.39
2023-03-13T15:53:16.492Z,19.42
2023-03-13T15:58:18.546Z,19.35
2023-03-13T16:03:24.680Z,19.17
2023-03-13T16:08:36.395Z,18.98
2023-03-13T16:13:38.627Z,18.92
2023-03-13T16:18:40.140Z,18.90
2023-03-13T16:23:41.633Z,18.83
2023-03-13T16:28:43.613Z,18.78
2023-03-13T16:33:45.578Z,18.75
2023-03-13T16:38:48.046Z,18.70
2023-03-13T16:43:50.304Z,18.62
2023-03-13T16:48:51.863Z,18.52
2023-03-13T16:53:55.652Z,18.43
2023-03-13T16:58:58.394Z,18.34
2023-03-13T17:04:00.372Z,18.26
2023-03-13T17:09:02.703Z,17.90
2023-03-13T17:14:04.526Z,17.48
2023-03-13T17:19:08.880Z,17.74
2023-03-13T17:24:10.375Z,17.54
2023-03-13T17:29:18.725Z,17.42
2023-03-13T17:34:20.271Z,16.99
2023-03-13T17:39:24.378Z,16.24
2023-03-13T17:44:25.952Z,15.72
2023-03-13T17:49:29.505Z,14.90
2023-03-13T17:54:31.027Z,13.42
2023-03-13T17:59:32.553Z,12.83
2023-03-13T18:04:34.069Z,12.54
2023-03-13T18:09:35.547Z,12.32
2023-03-13T18:14:37.750Z,12.29
2023-03-13T18:19:39.247Z,12.09
2023-03-13T18:24:41.208Z,11.99
2023-03-13T18:29:43.637Z,11.89
2023-03-13T18:34:45.582Z,11.93
2023-03-13T18:39:49.891Z,11.92
2023-03-13T18:44:51.449Z,11.82
2023-03-13T18:49:52.968Z,11.80
2023-03-13T18:54:54.495Z,11.81
2023-03-13T18:59:56.000Z,11.78
2023-03-13T19:04:57.500Z,11.71
2023-03-13T19:09:59.068Z,11.64
2023-03-13T19:15:00.555Z,11.63
2023-03-13T19:20:02.123Z,11.65
2023-03-13T19:25:03.889Z,11.65
2023-03-13T19:30:14.736Z,11.15
2023-03-13T19:35:21.722Z,10.52
2023-03-13T19:40:25.950Z,9.81
2023-03-13T19:45:27.715Z,9.43
2023-03-13T19:50:31.028Z,9.39
2023-03-13T19:55:32.541Z,9.46
2023-03-13T20:00:37.419Z,9.57
2023-03-13T20:05:38.918Z,9.59
2023-03-13T20:10:40.419Z,9.55
2023-03-13T20:15:42.019Z,9.48
2023-03-13T20:20:43.655Z,9.36
2023-03-13T20:25:45.192Z,9.36
2023-03-13T20:30:48.485Z,9.33
2023-03-13T20:35:50.041Z,9.20
2023-03-13T20:40:53.586Z,9.13
2023-03-13T20:45:55.401Z,9.11
2023-03-13T20:51:00.059Z,9.12
2023-03-13T20:56:03.617Z,9.17
2023-03-13T21:01:07.295Z,9.08
2023-03-13T21:06:14.971Z,9.02
2023-03-13T21:11:19.288Z,8.97
2023-03-13T21:16:20.997Z,8.95
2023-03-13T21:21:22.604Z,8.90
2023-03-13T21:26:24.171Z,8.85
2023-03-13T21:31:28.136Z,8.85
2023-03-13T21:36:32.863Z,8.92
2023-03-13T21:41:35.208Z,9.08
2023-03-13T21:46:36.755Z,9.28
2023-03-13T21:51:38.281Z,9.42
2023-03-13T21:56:39.771Z,9.56
2023-03-13T22:01:42.351Z,9.67
2023-03-13T22:06:43.903Z,9.79
2023-03-13T22:11:45.516Z,9.92
2023-03-13T22:16:48.117Z,10.20
2023-03-13T22:21:49.686Z,10.49
2023-03-13T22:26:51.297Z,10.62
2023-03-13T22:31:52.827Z,10.61
2023-03-13T22:36:54.432Z,10.57
2023-03-13T22:41:56.004Z,10.57
2023-03-13T22:46:57.539Z,10.67
2023-03-13T22:51:59.367Z,10.69
2023-03-13T22:57:00.856Z,10.70
2023-03-13T23:02:02.365Z,10.68
2023-03-13T23:07:03.937Z,10.71
2023-03-13T23:12:05.712Z,10.70
2023-03-13T23:17:07.253Z,10.66
2023-03-13T23:22:08.892Z,10.61
2023-03-13T23:27:10.407Z,10.54
2023-03-13T23:32:11.994Z,10.45
2023-03-13T23:37:13.486Z,10.37
2023-03-13T23:42:15.023Z,10.34
2023-03-13T23:47:16.548Z,10.36
2023-03-13T23:52:18.124Z,10.32
2023-03-13T23:57:19.851Z,10.32
